Time;durP1;ratioP1;P1;durP2;ratioP2;P2;SDS_P1;SDS_P2;PMS_P1;PMS_P2;Temp;Humidity;BMP_temperature;BMP_pressure;BME280_temperature;BME280_humidity;BME280_pressure;Samples;Min_cycle;Max_cycle;Signal;HPM_P1;HPM_P2
2022/10/27 00:00:40;;;;;;;15.45;3.40;;;;;;;11.65;94.32;100015.72;4949999;28;20050;-51
2022/10/27 00:03:11;;;;;;;26.63;4.03;;;;;;;11.69;93.99;100016.59;4951205;28;20043;-43
2022/10/27 00:05:42;;;;;;;25.73;6.13;;;;;;;11.71;93.67;100009.53;4948059;28;20423;-43
2022/10/27 00:08:13;;;;;;;18.95;3.28;;;;;;;11.71;93.94;100012.28;4950963;28;20047;-43
2022/10/27 00:10:43;;;;;;;18.45;4.03;;;;;;;11.71;94.01;100009.53;4951817;28;20137;-43
2022/10/27 00:13:12;;;;;;;43.45;7.10;;;;;;;11.72;93.86;100011.13;4981041;28;20047;-44
2022/10/27 00:15:39;;;;;;;21.80;3.50;;;;;;;11.74;93.93;100013.53;4940300;28;20051;-43
2022/10/27 00:18:10;;;;;;;22.77;4.43;;;;;;;11.75;94.00;100013.16;4950547;29;20050;-44
2022/10/27 00:20:37;;;;;;;23.50;4.43;;;;;;;11.75;93.96;100010.41;4951453;28;20481;-44
2022/10/27 00:23:04;;;;;;;24.52;3.67;;;;;;;11.78;94.06;100006.09;4949919;28;20039;-43
2022/10/27 00:25:31;;;;;;;19.15;5.03;;;;;;;11.79;93.97;100010.44;4951387;28;20079;-43
2022/10/27 00:27:58;;;;;;;16.80;4.00;;;;;;;11.80;94.01;100018.41;4949667;29;20051;-43
2022/10/27 00:30:26;;;;;;;23.75;3.13;;;;;;;11.80;93.62;100012.06;4950892;28;20062;-43
2022/10/27 00:32:54;;;;;;;18.33;3.08;;;;;;;11.83;93.72;100017.66;4950718;28;20453;-43
2022/10/27 00:35:21;;;;;;;20.80;3.20;;;;;;;11.86;93.84;100016.91;4949242;29;20051;-46
2022/10/27 00:37:47;;;;;;;19.23;3.15;;;;;;;11.86;93.59;100024.44;4948580;28;20102;-43
2022/10/27 00:40:15;;;;;;;10.95;2.65;;;;;;;11.86;93.67;100018.91;4949721;28;20043;-47
2022/10/27 00:42:41;;;;;;;19.00;4.30;;;;;;;11.84;93.53;100019.25;4949909;28;20051;-44
2022/10/27 00:45:08;;;;;;;22.73;3.28;;;;;;;11.86;93.55;100016.13;4947752;28;20069;-43
2022/10/27 00:47:36;;;;;;;17.45;2.80;;;;;;;11.85;93.68;100025.59;4947942;29;20047;-43
2022/10/27 00:50:21;;;;;;;10.65;2.55;;;;;;;11.86;93.81;100032.75;4949802;28;20047;-43
2022/10/27 00:52:56;;;;;;;19.75;3.38;;;;;;;11.86;93.83;100041.09;4949023;28;20051;-43
2022/10/27 00:55:29;;;;;;;19.45;2.88;;;;;;;11.86;93.95;100032.75;4947219;28;20039;-46
2022/10/27 00:57:58;;;;;;;13.50;2.60;;;;;;;11.86;94.07;100028.00;4943814;29;20054;-47
2022/10/27 01:00:25;;;;;;;17.30;3.35;;;;;;;11.87;93.99;100029.59;4947742;28;20397;-43
2022/10/27 01:02:52;;;;;;;20.13;3.83;;;;;;;11.87;94.19;100031.56;4950255;28;20483;-43
2022/10/27 01:05:21;;;;;;;21.80;4.18;;;;;;;11.86;94.25;100043.84;4942406;29;20501;-47
2022/10/27 01:07:50;;;;;;;16.55;3.28;;;;;;;11.86;94.44;100039.09;4949992;29;20497;-44
2022/10/27 01:10:17;;;;;;;23.52;3.70;;;;;;;11.85;94.67;100037.50;4950940;28;20437;-43
2022/10/27 01:12:45;;;;;;;21.77;3.90;;;;;;;11.84;94.76;100035.09;4950875;28;20062;-46
2022/10/27 01:15:13;;;;;;;31.70;4.75;;;;;;;11.81;94.87;100039.41;4966048;28;20054;-44
2022/10/27 01:18:01;;;;;;;15.82;4.25;;;;;;;11.80;95.13;100042.56;4950208;28;20062;-43
2022/10/27 01:20:45;;;;;;;21.25;2.90;;;;;;;11.78;95.37;100048.44;4949772;28;20039;-49
2022/10/27 01:23:23;;;;;;;18.35;3.30;;;;;;;11.76;95.65;100045.25;4947473;28;20043;-45
2022/10/27 01:26:07;;;;;;;16.75;2.95;;;;;;;11.78;95.76;100045.69;4944874;28;20681;-43
2022/10/27 01:28:57;;;;;;;19.08;3.80;;;;;;;11.81;95.81;100046.94;4938346;28;20074;-47
2022/10/27 01:31:30;;;;;;;21.25;4.10;;;;;;;11.81;95.96;100041.41;4947231;29;20051;-46
2022/10/27 01:34:11;;;;;;;15.27;3.00;;;;;;;11.81;95.99;100050.50;4950655;28;20031;-44
2022/10/27 01:37:04;;;;;;;15.32;3.75;;;;;;;11.83;96.36;100052.91;4949009;28;20051;-44
2022/10/27 01:39:38;;;;;;;23.02;4.60;;;;;;;11.81;96.51;100056.03;4940080;28;20039;-50
2022/10/27 01:42:14;;;;;;;19.23;3.72;;;;;;;11.80;96.69;100056.41;4949090;28;20047;-44
2022/10/27 01:44:46;;;;;;;28.15;4.90;;;;;;;11.80;96.65;100054.47;4938241;28;20047;-44
2022/10/27 01:47:14;;;;;;;19.77;4.68;;;;;;;11.80;96.91;100053.66;4945275;29;20066;-43
2022/10/27 01:49:42;;;;;;;22.73;5.05;;;;;;;11.81;97.15;100041.41;4951375;28;20098;-48
2022/10/27 01:52:36;;;;;;;25.95;4.70;;;;;;;11.79;97.23;100033.44;4952957;28;21338;-43
2022/10/27 01:55:04;;;;;;;25.83;4.85;;;;;;;11.78;97.35;100033.81;4952846;29;20047;-44
2022/10/27 01:57:51;;;;;;;45.15;5.82;;;;;;;11.77;97.59;100032.19;4946638;29;20043;-43
2022/10/27 02:00:18;;;;;;;32.85;5.13;;;;;;;11.78;97.92;100025.50;4951005;29;20039;-43
2022/10/27 02:02:47;;;;;;;27.75;5.10;;;;;;;11.80;98.07;100023.16;4949862;28;20046;-43
2022/10/27 02:05:35;;;;;;;22.23;4.70;;;;;;;11.81;98.04;100024.75;4953518;28;20071;-44
2022/10/27 02:08:13;;;;;;;20.35;5.35;;;;;;;11.80;98.12;100026.72;4951217;29;20532;-43
2022/10/27 02:10:49;;;;;;;25.95;5.47;;;;;;;11.81;98.55;100025.53;4953943;28;20461;-43
2022/10/27 02:13:16;;;;;;;25.02;5.75;;;;;;;11.82;98.63;100018.03;4952620;29;20371;-44
2022/10/27 02:15:59;;;;;;;28.83;6.22;;;;;;;11.83;98.82;100020.44;4953403;28;20047;-44
2022/10/27 02:18:36;;;;;;;23.35;4.70;;;;;;;11.86;98.79;100010.56;4954108;28;20437;-45
2022/10/27 02:21:08;;;;;;;34.72;6.13;;;;;;;11.87;99.18;100012.16;4953743;28;20047;-43
2022/10/27 02:23:35;;;;;;;29.00;7.22;;;;;;;11.90;99.38;100006.69;4954208;28;20058;-44
2022/10/27 02:26:24;;;;;;;41.17;7.25;;;;;;;11.94;99.48;99990.09;4953335;29;20058;-46
2022/10/27 02:28:57;;;;;;;33.63;8.13;;;;;;;11.97;99.61;99995.69;4953116;28;20508;-44
2022/10/27 02:31:31;;;;;;;33.30;7.18;;;;;;;12.00;99.75;99978.28;4952094;29;20048;-43
2022/10/27 02:33:58;;;;;;;31.30;6.15;;;;;;;12.05;100.00;99979.94;4952384;28;20098;-43
2022/10/27 02:36:30;;;;;;;35.63;6.32;;;;;;;12.09;100.00;99969.72;4951676;28;20082;-44
2022/10/27 02:38:57;;;;;;;36.17;6.82;;;;;;;12.11;100.00;99967.34;4952343;28;20043;-44
2022/10/27 02:41:23;;;;;;;34.03;6.55;;;;;;;12.15;100.00;99959.91;4952317;28;20067;-43
2022/10/27 02:43:50;;;;;;;32.60;6.35;;;;;;;12.19;100.00;99955.19;4941440;28;20051;-46
2022/10/27 02:46:17;;;;;;;18.58;3.67;;;;;;;12.27;100.00;99954.13;4951510;28;20520;-45
2022/10/27 02:48:43;;;;;;;29.88;5.90;;;;;;;12.30;100.00;99964.47;4952042;28;20047;-44
2022/10/27 02:51:10;;;;;;;26.95;4.60;;;;;;;12.36;100.00;99959.41;4952378;28;20050;-44
2022/10/27 02:53:37;;;;;;;35.58;7.47;;;;;;;12.40;100.00;99963.81;4949379;28;20051;-43
2022/10/27 02:56:04;;;;;;;29.85;4.25;;;;;;;12.46;100.00;99962.31;4950873;29;20051;-44
2022/10/27 02:58:31;;;;;;;26.88;4.95;;;;;;;12.53;100.00;99951.28;4951011;28;20053;-50
2022/10/27 03:00:57;;;;;;;30.38;5.20;;;;;;;12.62;100.00;99954.59;4990291;23;20604;-43
2022/10/27 03:03:24;;;;;;;23.70;4.53;;;;;;;12.69;100.00;99951.09;4951674;28;20039;-51
2022/10/27 03:05:51;;;;;;;39.15;4.97;;;;;;;12.72;100.00;99955.88;4952308;28;20039;-44
2022/10/27 03:08:18;;;;;;;23.42;4.85;;;;;;;12.76;100.00;99954.75;4950174;28;20054;-43
2022/10/27 03:10:44;;;;;;;22.13;4.63;;;;;;;12.80;100.00;99955.59;4952039;28;20055;-45
2022/10/27 03:13:11;;;;;;;22.42;4.28;;;;;;;12.87;100.00;99959.66;4950390;28;20047;-55
2022/10/27 03:15:38;;;;;;;30.20;5.15;;;;;;;12.92;100.00;99962.06;4950923;28;20068;-55
2022/10/27 03:18:04;;;;;;;19.85;4.15;;;;;;;12.91;100.00;99958.50;4951953;28;20043;-44
2022/10/27 03:20:31;;;;;;;18.98;3.60;;;;;;;12.91;100.00;99968.81;4951792;29;20536;-43
2022/10/27 03:22:59;;;;;;;20.73;4.00;;;;;;;12.90;100.00;99967.19;4949818;28;20090;-43
2022/10/27 03:25:25;;;;;;;21.83;3.63;;;;;;;12.90;100.00;99967.19;4950871;28;20047;-46
2022/10/27 03:27:52;;;;;;;23.40;4.93;;;;;;;12.89;100.00;99958.09;4951446;28;20049;-43
2022/10/27 03:30:19;;;;;;;22.02;3.90;;;;;;;12.90;100.00;99953.31;4949799;29;20039;-44
2022/10/27 03:32:51;;;;;;;18.88;3.47;;;;;;;12.90;100.00;99956.06;4951604;28;20043;-43
2022/10/27 03:35:19;;;;;;;;;;;;;;;12.88;100.00;99955.66;4951843;28;20058;-44
2022/10/27 03:37:53;;;;;;;14.88;2.83;;;;;;;12.87;100.00;99949.31;4950858;28;20359;-48
2022/10/27 03:40:19;;;;;;;15.68;4.60;;;;;;;12.86;100.00;99942.16;4951683;28;20428;-44
2022/10/27 03:42:46;;;;;;;24.80;5.55;;;;;;;12.86;100.00;99942.16;4950912;28;20493;-50
2022/10/27 03:45:13;;;;;;;14.77;2.72;;;;;;;12.84;100.00;99934.19;4952244;28;20493;-45
2022/10/27 03:47:39;;;;;;;24.40;4.28;;;;;;;12.83;100.00;99921.50;4951926;28;20493;-42
2022/10/27 03:50:06;;;;;;;25.35;3.80;;;;;;;12.82;100.00;99914.34;4952461;28;20054;-42
2022/10/27 03:52:33;;;;;;;23.13;3.03;;;;;;;12.80;100.00;99908.38;4952115;28;20054;-51
2022/10/27 03:55:00;;;;;;;19.10;2.88;;;;;;;12.79;100.00;99881.75;4950250;28;20047;-42
2022/10/27 03:57:26;;;;;;;16.75;3.30;;;;;;;12.78;100.00;99869.06;4950785;28;20043;-43
2022/10/27 03:59:53;;;;;;;26.30;3.75;;;;;;;12.77;100.00;99873.03;4950795;28;20055;-42
2022/10/27 04:02:20;;;;;;;30.30;6.10;;;;;;;12.75;100.00;99891.25;4951940;28;20389;-43
2022/10/27 04:04:46;;;;;;;23.90;3.88;;;;;;;12.71;100.00;99891.19;4952256;28;20058;-42
2022/10/27 04:07:13;;;;;;;33.15;6.53;;;;;;;12.69;100.00;99888.00;4952270;28;20050;-42
2022/10/27 04:09:40;;;;;;;32.15;5.63;;;;;;;12.68;100.00;99891.94;4951721;28;20050;-41
2022/10/27 04:12:06;;;;;;;34.90;4.88;;;;;;;12.67;100.00;99889.56;4950407;28;20039;-43
2022/10/27 04:14:33;;;;;;;32.83;5.28;;;;;;;12.67;100.00;99878.47;4949515;28;20062;-43
2022/10/27 04:17:00;;;;;;;34.47;5.47;;;;;;;12.65;100.00;99875.28;4948939;28;20054;-43
2022/10/27 04:19:26;;;;;;;24.77;4.35;;;;;;;12.65;100.00;99853.84;4951034;28;20043;-43
2022/10/27 04:21:53;;;;;;;21.38;4.25;;;;;;;12.63;100.00;99850.63;4949661;28;20046;-41
2022/10/27 04:24:20;;;;;;;18.35;2.97;;;;;;;12.64;100.00;99852.25;4948836;28;20042;-43
2022/10/27 04:26:46;;;;;;;19.83;4.95;;;;;;;12.65;100.00;99864.97;4949757;28;20054;-45
2022/10/27 04:29:13;;;;;;;12.20;3.03;;;;;;;12.65;100.00;99862.19;4949898;28;20043;-47
2022/10/27 04:31:39;;;;;;;18.27;2.50;;;;;;;12.67;100.00;99848.72;4948926;28;20453;-43
2022/10/27 04:34:07;;;;;;;30.98;4.88;;;;;;;12.69;100.00;99848.31;4949806;28;20054;-43
2022/10/27 04:36:34;;;;;;;21.25;3.75;;;;;;;12.68;100.00;99850.28;4949324;28;20062;-48
2022/10/27 04:39:00;;;;;;;26.50;4.82;;;;;;;12.68;100.00;99853.06;4950221;28;20035;-42
2022/10/27 04:41:27;;;;;;;27.77;4.63;;;;;;;12.70;100.00;99853.50;4949394;28;20505;-42
2022/10/27 04:43:56;;;;;;;20.77;4.32;;;;;;;12.69;100.00;99854.69;4948860;28;20043;-47
2022/10/27 04:46:23;;;;;;;21.20;5.22;;;;;;;12.70;100.00;99845.19;4947707;28;20583;-43
2022/10/27 04:48:49;;;;;;;20.00;4.05;;;;;;;12.71;100.00;99851.50;4949486;28;20043;-43
2022/10/27 04:51:16;;;;;;;18.42;3.67;;;;;;;12.71;100.00;99855.09;4949486;28;20059;-50
2022/10/27 04:53:48;;;;;;;;;;;;;;;12.69;100.00;99851.91;4945528;29;20050;-41
2022/10/27 04:56:15;;;;;;;10.65;2.80;;;;;;;12.69;100.00;99848.31;4948834;28;20264;-42
2022/10/27 04:58:41;;;;;;;11.43;2.90;;;;;;;12.68;100.00;99835.63;4949079;28;20445;-43
2022/10/27 05:01:09;;;;;;;18.90;3.58;;;;;;;12.68;100.00;99853.06;4948290;28;20047;-43
2022/10/27 05:03:36;;;;;;;14.10;3.55;;;;;;;12.68;100.00;99852.31;4948187;28;20047;-43
2022/10/27 05:06:03;;;;;;;9.50;3.00;;;;;;;12.67;100.00;99848.72;4949864;28;20058;-43
2022/10/27 05:08:30;;;;;;;13.38;2.65;;;;;;;12.64;100.00;99841.16;4947661;28;20043;-43
2022/10/27 05:10:57;;;;;;;9.20;2.30;;;;;;;12.63;100.00;99839.53;4947090;28;20047;-43
2022/10/27 05:13:24;;;;;;;4.85;1.30;;;;;;;12.60;100.00;99834.75;4948526;28;20054;-41
2022/10/27 05:15:50;;;;;;;8.05;2.03;;;;;;;12.59;100.00;99833.16;4945996;28;20043;-42
2022/10/27 05:18:17;;;;;;;6.50;1.00;;;;;;;12.57;100.00;99829.97;4950812;28;20130;-41
2022/10/27 05:20:44;;;;;;;4.35;1.50;;;;;;;12.56;100.00;99824.78;4946647;28;20047;-42
2022/10/27 05:23:11;;;;;;;5.65;1.10;;;;;;;12.52;100.00;99819.19;4947768;28;20051;-42
2022/10/27 05:25:37;;;;;;;5.47;1.00;;;;;;;12.50;100.00;99824.31;4942890;29;20055;-42
2022/10/27 05:28:09;;;;;;;6.97;1.02;;;;;;;12.49;100.00;99822.75;4948677;28;20074;-42
2022/10/27 05:30:36;;;;;;;3.95;1.00;;;;;;;12.47;100.00;99822.31;4962213;28;20052;-44
2022/10/27 05:33:03;;;;;;;4.68;1.23;;;;;;;12.47;100.00;99818.75;4948374;28;20049;-45
2022/10/27 05:35:29;;;;;;;5.55;1.30;;;;;;;12.47;100.00;99827.84;4955555;28;20414;-42
2022/10/27 05:37:56;;;;;;;4.30;1.33;;;;;;;12.47;100.00;99821.53;4938999;29;20043;-43
2022/10/27 05:40:23;;;;;;;3.45;0.73;;;;;;;12.49;100.00;99819.97;4945665;28;20444;-43
2022/10/27 05:42:53;;;;;;;4.93;1.00;;;;;;;12.48;100.00;99818.34;4948749;28;20039;-42
2022/10/27 05:45:22;;;;;;;3.70;1.00;;;;;;;12.48;100.00;99810.03;4946932;28;20051;-43
2022/10/27 05:47:58;;;;;;;6.57;1.40;;;;;;;12.48;100.00;99810.03;4949806;28;20497;-49
2022/10/27 05:50:27;;;;;;;7.97;1.10;;;;;;;12.47;100.00;99805.66;4948053;28;20051;-47
2022/10/27 05:52:54;;;;;;;3.03;1.05;;;;;;;12.49;100.00;99808.06;4947057;28;20051;-49
2022/10/27 05:55:22;;;;;;;5.50;1.75;;;;;;;12.47;100.00;99797.31;4949439;29;20055;-42
2022/10/27 05:57:56;;;;;;;7.22;1.63;;;;;;;12.50;100.00;99806.84;4949007;28;20051;-42
2022/10/27 06:00:25;;;;;;;8.63;1.60;;;;;;;12.50;100.00;99796.56;4947723;28;20054;-42
2022/10/27 06:02:56;;;;;;;3.95;1.45;;;;;;;12.52;100.00;99805.31;4943205;28;20066;-46
2022/10/27 06:05:24;;;;;;;6.05;1.70;;;;;;;12.57;100.00;99810.53;4944638;28;20050;-50
2022/10/27 06:07:50;;;;;;;10.55;2.13;;;;;;;12.58;100.00;99803.78;4948936;28;20393;-42
2022/10/27 06:10:18;;;;;;;6.85;2.50;;;;;;;12.59;100.00;99793.47;4950260;28;20110;-44
2022/10/27 06:12:44;;;;;;;13.90;3.60;;;;;;;12.57;100.00;99788.31;4949646;28;20047;-42
2022/10/27 06:15:11;;;;;;;9.40;3.33;;;;;;;12.58;100.00;99791.88;4946800;28;20150;-42
2022/10/27 06:17:38;;;;;;;8.13;3.28;;;;;;;12.59;100.00;99794.28;4947213;28;20047;-43
2022/10/27 06:20:06;;;;;;;14.45;2.40;;;;;;;12.60;100.00;99798.63;4945370;28;20059;-46
2022/10/27 06:22:33;;;;;;;10.77;2.85;;;;;;;12.62;100.00;99810.19;4948805;28;20047;-42
2022/10/27 06:25:00;;;;;;;13.02;1.92;;;;;;;12.66;100.00;99811.00;4946998;28;20536;-45
2022/10/27 06:27:26;;;;;;;5.97;1.52;;;;;;;12.67;100.00;99801.50;4948870;28;20047;-43
2022/10/27 06:29:53;;;;;;;10.82;2.03;;;;;;;12.74;100.00;99800.75;4949608;28;20047;-41
2022/10/27 06:32:20;;;;;;;8.13;1.42;;;;;;;12.80;100.00;99794.50;4946147;29;20046;-42
2022/10/27 06:34:46;;;;;;;7.45;1.20;;;;;;;12.88;100.00;99800.09;4946000;28;20059;-44
2022/10/27 06:37:13;;;;;;;10.82;3.40;;;;;;;12.91;100.00;99799.34;4953662;28;20043;-49
2022/10/27 06:39:41;;;;;;;8.85;1.45;;;;;;;12.96;100.00;99793.41;4953722;28;20472;-41
2022/10/27 06:42:08;;;;;;;6.63;1.38;;;;;;;13.01;100.00;99787.50;4953623;28;20058;-41
2022/10/27 06:44:34;;;;;;;11.25;2.10;;;;;;;13.04;100.00;99793.09;4953592;28;20054;-41
2022/10/27 06:47:01;;;;;;;8.07;1.70;;;;;;;13.07;100.00;99791.56;4951898;28;20485;-43
2022/10/27 06:49:28;;;;;;;6.63;1.42;;;;;;;13.08;100.00;99785.59;4953370;28;20043;-43
2022/10/27 06:51:54;;;;;;;9.73;1.50;;;;;;;13.08;100.00;99787.63;4953150;28;20051;-41
2022/10/27 06:54:21;;;;;;;7.70;1.48;;;;;;;13.09;100.00;99783.63;4953346;28;20035;-44
2022/10/27 06:56:48;;;;;;;9.70;1.63;;;;;;;13.09;100.00;99794.75;4953149;28;20551;-42
2022/10/27 06:59:14;;;;;;;11.70;2.40;;;;;;;13.10;100.00;99796.34;4950996;28;20043;-41
2022/10/27 07:01:41;;;;;;;10.07;2.22;;;;;;;13.10;100.00;99796.34;4948817;28;20093;-42
2022/10/27 07:04:08;;;;;;;15.18;3.08;;;;;;;13.11;100.00;99786.81;4950131;28;20051;-42
2022/10/27 07:06:34;;;;;;;15.75;3.33;;;;;;;13.14;100.00;99799.94;4952208;28;20386;-43
2022/10/27 07:09:01;;;;;;;10.27;2.95;;;;;;;13.14;100.00;99794.38;4952705;28;20471;-48
2022/10/27 07:11:32;;;;;;;7.30;2.20;;;;;;;13.13;100.00;99796.38;4952203;28;20054;-47
2022/10/27 07:13:59;;;;;;;14.55;3.83;;;;;;;13.16;100.00;99794.78;4952155;28;20304;-42
2022/10/27 07:16:26;;;;;;;6.75;2.75;;;;;;;13.19;100.00;99794.84;4950849;28;20047;-44
2022/10/27 07:18:57;;;;;;;12.50;1.98;;;;;;;13.20;100.00;99795.63;4950767;28;20576;-42
2022/10/27 07:21:26;;;;;;;9.85;3.17;;;;;;;13.23;100.00;99811.53;4937926;28;20065;-44
2022/10/27 07:23:53;;;;;;;6.30;1.60;;;;;;;13.25;100.00;99809.16;4919057;28;20047;-43
2022/10/27 07:26:20;;;;;;;12.10;1.88;;;;;;;13.25;100.00;99809.16;4919450;28;20501;-44
2022/10/27 07:28:46;;;;;;;5.97;0.95;;;;;;;13.27;100.00;99807.59;4918406;29;20267;-44
2022/10/27 07:31:13;;;;;;;6.05;1.80;;;;;;;13.28;100.00;99808.41;4928833;28;20051;-42
2022/10/27 07:33:40;;;;;;;5.57;1.23;;;;;;;13.30;100.00;99803.25;4950800;29;20047;-43
2022/10/27 07:36:07;;;;;;;9.10;1.20;;;;;;;13.32;100.00;99803.66;4948738;28;20094;-47
2022/10/27 07:38:34;;;;;;;4.80;1.20;;;;;;;13.34;100.00;99806.88;4939465;29;20050;-42
2022/10/27 07:41:01;;;;;;;14.70;3.13;;;;;;;13.37;100.00;99808.84;4932785;28;20043;-44
2022/10/27 07:43:27;;;;;;;4.35;1.15;;;;;;;13.39;100.00;99814.84;4947933;28;20054;-43
2022/10/27 07:45:54;;;;;;;2.70;0.70;;;;;;;13.40;100.00;99808.88;4952345;28;20070;-42
2022/10/27 07:48:21;;;;;;;5.03;1.25;;;;;;;13.44;100.00;99811.69;4952765;28;20039;-48
2022/10/27 07:50:47;;;;;;;1.38;1.17;;;;;;;13.48;100.00;99812.50;4952056;28;20112;-44
2022/10/27 07:53:19;;;;;;;5.22;0.82;;;;;;;13.51;100.00;99817.31;4952126;28;20047;-43
2022/10/27 07:55:46;;;;;;;2.25;0.60;;;;;;;13.53;100.00;99814.91;4952200;28;20031;-43
2022/10/27 07:58:15;;;;;;;4.03;1.02;;;;;;;13.55;100.00;99817.34;4950375;28;20694;-43
2022/10/27 08:00:45;;;;;;;3.15;0.77;;;;;;;13.58;100.00;99822.91;4950406;28;20051;-42
2022/10/27 08:03:17;;;;;;;4.28;0.68;;;;;;;13.59;100.00;99818.94;4951775;28;20053;-44
2022/10/27 08:05:44;;;;;;;1.48;0.77;;;;;;;13.61;100.00;99822.13;4951177;28;20051;-54
2022/10/27 08:08:11;;;;;;;4.45;0.73;;;;;;;13.62;100.00;99834.84;4951324;29;20042;-43
2022/10/27 08:10:39;;;;;;;3.42;0.80;;;;;;;13.66;100.00;99829.31;4951985;28;20154;-42
2022/10/27 08:13:07;;;;;;;0.70;0.50;;;;;;;13.68;100.00;99826.94;4951906;28;20070;-46
2022/10/27 08:15:35;;;;;;;1.75;0.60;;;;;;;13.70;100.00;99830.94;4951609;28;20055;-52
2022/10/27 08:18:02;;;;;;;1.55;0.80;;;;;;;13.69;100.00;99823.78;4952003;28;20374;-45
2022/10/27 08:20:32;;;;;;;2.00;0.60;;;;;;;13.72;100.00;99831.34;4951686;28;20138;-42
2022/10/27 08:23:02;;;;;;;4.30;0.88;;;;;;;13.73;100.00;99835.72;4951470;28;20409;-43
2022/10/27 08:25:29;;;;;;;3.97;0.93;;;;;;;13.73;100.00;99835.72;4951500;28;20239;-42
2022/10/27 08:27:57;;;;;;;2.53;0.82;;;;;;;13.75;100.00;99835.31;4949969;28;20054;-42
2022/10/27 08:30:26;;;;;;;5.78;0.82;;;;;;;13.75;100.00;99830.56;4949983;28;20051;-44
2022/10/27 08:32:59;;;;;;;1.38;0.60;;;;;;;13.77;100.00;99836.53;4951502;28;20118;-42
2022/10/27 08:35:27;;;;;;;1.52;0.80;;;;;;;13.79;100.00;99828.59;4951198;28;20038;-42
2022/10/27 08:38:03;;;;;;;5.57;1.20;;;;;;;13.84;100.00;99831.03;4951579;28;20051;-42
2022/10/27 08:40:48;;;;;;;3.20;1.73;;;;;;;13.90;100.00;99840.56;4951221;29;20392;-42
2022/10/27 08:43:33;;;;;;;6.88;1.88;;;;;;;13.97;100.00;99845.41;4951128;28;20102;-42
2022/10/27 08:46:12;;;;;;;4.43;1.48;;;;;;;14.03;100.00;99832.72;4951352;28;20062;-43
2022/10/27 08:48:41;;;;;;;3.58;1.17;;;;;;;14.10;100.00;99843.88;4951206;28;20489;-43
2022/10/27 08:51:14;;;;;;;9.50;1.55;;;;;;;14.16;100.00;99844.31;4951055;28;20607;-44
2022/10/27 08:53:43;;;;;;;8.82;2.13;;;;;;;14.21;100.00;99847.50;4949432;28;20429;-43
2022/10/27 08:56:10;;;;;;;6.35;1.95;;;;;;;14.27;100.00;99845.16;4938064;29;20035;-43
2022/10/27 08:58:45;;;;;;;32.92;6.05;;;;;;;14.31;100.00;99849.56;4950533;28;20063;-43
2022/10/27 09:01:17;;;;;;;9.18;2.15;;;;;;;14.33;100.00;99851.94;4941819;28;20058;-44
2022/10/27 09:03:57;;;;;;;5.43;1.42;;;;;;;14.31;100.00;99855.13;4951122;28;20095;-43
2022/10/27 09:06:38;;;;;;;5.07;1.05;;;;;;;14.32;100.00;99858.72;4951015;28;20501;-43
2022/10/27 09:09:43;;;;;;;8.95;2.25;;;;;;;14.29;100.00;99857.50;4951097;29;20062;-47
2022/10/27 09:12:16;;;;;;;3.95;1.45;;;;;;;14.26;100.00;99858.25;4951036;28;20493;-43
2022/10/27 09:15:01;;;;;;;6.63;0.90;;;;;;;14.27;100.00;99861.84;4951043;28;20047;-49
2022/10/27 09:17:39;;;;;;;3.17;1.20;;;;;;;14.27;100.00;99853.50;4950654;28;20043;-43
2022/10/27 09:20:23;;;;;;;11.80;1.58;;;;;;;14.30;100.00;99858.25;4949561;28;20054;-43
2022/10/27 09:22:53;;;;;;;12.60;3.17;;;;;;;14.32;100.00;99856.72;4948744;29;20051;-43
2022/10/27 09:25:21;;;;;;;1.50;0.77;;;;;;;14.36;100.00;99856.72;4950750;28;20043;-43
2022/10/27 09:27:53;;;;;;;5.68;1.17;;;;;;;14.41;100.00;99865.50;4950645;28;20054;-43
2022/10/27 09:30:20;;;;;;;;;;;;;;;14.49;100.00;99857.97;4950902;28;20051;-44
2022/10/27 09:32:53;;;;;;;5.00;1.15;;;;;;;14.56;100.00;99855.22;4950079;29;19949;-43
2022/10/27 09:35:27;;;;;;;6.45;1.02;;;;;;;14.59;100.00;99857.19;4947975;29;20074;-44
2022/10/27 09:37:58;;;;;;;20.77;2.15;;;;;;;14.61;100.00;99852.06;4951028;28;20494;-43
2022/10/27 09:40:30;;;;;;;11.60;2.08;;;;;;;14.60;100.00;99854.03;4950933;28;20093;-44
2022/10/27 09:42:57;;;;;;;6.57;1.55;;;;;;;14.61;100.00;99852.06;4951126;28;20058;-45
2022/10/27 09:45:25;;;;;;;7.45;1.17;;;;;;;14.60;100.00;99850.44;4950747;28;20055;-44
2022/10/27 09:47:55;;;;;;;3.50;0.90;;;;;;;14.61;100.00;99852.84;4950807;28;20486;-43
2022/10/27 09:50:28;;;;;;;8.50;1.48;;;;;;;14.64;100.00;99863.19;4950804;28;20394;-45
2022/10/27 09:52:55;;;;;;;4.60;1.10;;;;;;;14.67;100.00;99867.19;4949094;28;20043;-45
2022/10/27 09:55:22;;;;;;;8.30;1.17;;;;;;;14.70;100.00;99865.59;4950961;28;20054;-44
2022/10/27 09:57:49;;;;;;;12.73;1.52;;;;;;;14.72;100.00;99866.78;4950366;28;20040;-44
2022/10/27 10:00:20;;;;;;;3.58;0.98;;;;;;;14.75;100.00;99868.78;4950660;28;20433;-42
2022/10/27 10:03:01;;;;;;;6.80;0.90;;;;;;;14.80;100.00;99862.81;4950241;28;20114;-43
2022/10/27 10:05:37;;;;;;;3.72;0.85;;;;;;;14.83;100.00;99864.81;4950801;28;20043;-43
2022/10/27 10:08:22;;;;;;;3.60;1.33;;;;;;;14.86;100.00;99863.25;4950272;28;20047;-42
2022/10/27 10:10:54;;;;;;;3.97;0.80;;;;;;;14.88;100.00;99852.50;4952790;29;20043;-43
2022/10/27 10:13:22;;;;;;;3.05;1.00;;;;;;;14.89;100.00;99857.69;4954232;28;20098;-43
2022/10/27 10:16:06;;;;;;;3.45;0.68;;;;;;;14.93;100.00;99847.31;4954251;28;20047;-43
2022/10/27 10:18:34;;;;;;;3.33;0.60;;;;;;;14.95;100.00;99850.53;4953885;28;20482;-43
2022/10/27 10:21:12;;;;;;;2.60;0.80;;;;;;;14.99;100.00;99851.31;4953786;28;20497;-42
2022/10/27 10:23:45;;;;;;;2.55;0.57;;;;;;;15.06;100.00;99851.31;4951901;28;20047;-43
2022/10/27 10:26:16;;;;;;;2.28;0.50;;;;;;;15.14;100.00;99858.50;4953294;29;20424;-44
2022/10/27 10:28:44;;;;;;;0.52;0.50;;;;;;;15.18;100.00;99850.94;4953980;28;20051;-44
2022/10/27 10:31:20;;;;;;;4.28;0.50;;;;;;;15.17;100.00;99846.56;4953512;28;20042;-43
2022/10/27 10:33:47;;;;;;;1.45;0.40;;;;;;;15.17;100.00;99845.75;4953411;28;20405;-44
2022/10/27 10:36:33;;;;;;;0.68;0.28;;;;;;;15.21;100.00;99843.78;4953525;28;20047;-49
2022/10/27 10:39:02;;;;;;;6.95;1.15;;;;;;;15.27;100.00;99841.38;4953545;28;20465;-43
2022/10/27 10:41:29;;;;;;;1.65;0.30;;;;;;;15.41;100.00;99833.78;4953510;28;20040;-42
2022/10/27 10:44:16;;;;;;;1.77;0.50;;;;;;;15.55;100.00;99833.03;4953404;28;20050;-43
2022/10/27 10:46:52;;;;;;;6.82;0.80;;;;;;;15.66;100.00;99844.97;4953856;28;20051;-43
2022/10/27 10:49:22;;;;;;;2.40;1.15;;;;;;;15.66;100.00;99850.56;4953615;28;20050;-43
2022/10/27 10:52:02;;;;;;;1.75;0.40;;;;;;;15.62;100.00;99850.53;4951934;28;20386;-43
2022/10/27 10:54:33;;;;;;;0.85;0.20;;;;;;;15.60;100.00;99836.22;4944153;29;20477;-43
2022/10/27 10:57:01;;;;;;;3.83;0.60;;;;;;;15.60;100.00;99835.41;4953106;28;20521;-47
2022/10/27 10:59:34;;;;;;;1.05;0.20;;;;;;;15.60;100.00;99839.00;4952875;28;20046;-43
2022/10/27 11:02:05;;;;;;;1.40;0.30;;;;;;;15.60;100.00;99852.16;4952970;28;20472;-45
2022/10/27 11:04:43;;;;;;;0.70;0.33;;;;;;;15.60;100.00;99852.16;4953620;28;20446;-43
2022/10/27 11:07:30;;;;;;;0.20;0.20;;;;;;;15.63;100.00;99852.16;4953663;28;20429;-44
2022/10/27 11:10:11;;;;;;;4.63;0.77;;;;;;;15.64;100.00;99841.78;4953361;28;20057;-43
2022/10/27 11:12:45;;;;;;;2.33;0.63;;;;;;;15.65;100.00;99848.94;4952123;28;20051;-44
2022/10/27 11:15:26;;;;;;;2.20;0.60;;;;;;;15.68;100.00;99842.56;4952837;28;20301;-43
2022/10/27 11:17:59;;;;;;;1.08;0.38;;;;;;;15.75;100.00;99842.56;4952920;28;20086;-43
2022/10/27 11:20:34;;;;;;;;;;;;;;;15.80;100.00;99847.75;4952970;28;20054;-43
2022/10/27 11:23:10;;;;;;;2.38;0.75;;;;;;;15.83;100.00;99844.16;4952133;28;20304;-48
2022/10/27 11:25:37;;;;;;;2.42;0.70;;;;;;;15.84;100.00;99851.31;4952636;28;20047;-43
2022/10/27 11:28:15;;;;;;;4.10;0.60;;;;;;;15.85;100.00;99833.38;4952655;28;20540;-43
2022/10/27 11:30:52;;;;;;;2.03;0.70;;;;;;;15.86;100.00;99843.31;4952923;28;20427;-42
2022/10/27 11:33:45;;;;;;;3.05;0.80;;;;;;;15.85;100.00;99830.59;4952395;28;20405;-43
2022/10/27 11:36:52;;;;;;;6.35;1.77;;;;;;;15.87;100.00;99839.34;4952469;28;20054;-43